createdAt,value
2018-06-09T00:00:16.251Z,26.37
2018-06-09T00:01:16.241Z,26.57
2018-06-09T00:02:16.235Z,27.72
2018-06-09T00:03:16.219Z,28.02
2018-06-09T00:04:16.214Z,28.4
2018-06-09T00:05:15.942Z,28.78
2018-06-09T00:06:15.929Z,28.88
2018-06-09T00:07:16.184Z,29.27
2018-06-09T00:08:15.911Z,28.88
2018-06-09T00:09:15.904Z,29.36
2018-06-09T00:10:16.156Z,28.97
2018-06-09T00:11:16.144Z,29.07
2018-06-09T00:12:16.145Z,29.55
2018-06-09T00:13:15.867Z,30.04
2018-06-09T00:14:16.118Z,30.42
2018-06-09T00:15:16.106Z,30.13
2018-06-09T00:16:16.112Z,29.94
2018-06-09T00:17:15.829Z,31
2018-06-09T00:18:16.077Z,33.12
2018-06-09T00:19:16.072Z,33.12
2018-06-09T00:20:16.066Z,33.89
2018-06-09T00:21:16.093Z,34.37
2018-06-09T00:22:16.041Z,34.25
2018-06-09T00:23:16.033Z,34.83
2018-06-09T00:24:16.027Z,36.66
2018-06-09T00:25:16.018Z,36.95
2018-06-09T00:26:15.745Z,36.85
2018-06-09T00:27:15.996Z,38.01
2018-06-09T00:28:15.719Z,39.86
2018-06-09T00:29:15.980Z,40.22
2018-06-09T00:30:15.701Z,41.86
2018-06-09T00:31:15.957Z,41.95
2018-06-09T00:32:15.683Z,43.97
2018-06-09T00:33:15.936Z,46.09
2018-06-09T00:34:15.936Z,46.57
2018-06-09T00:35:15.926Z,47.15
2018-06-09T00:36:15.649Z,48.69
2018-06-09T00:37:15.903Z,48.97
2018-06-09T00:38:15.894Z,49.46
2018-06-09T00:39:15.616Z,49.84
2018-06-09T00:40:15.609Z,52.63
2018-06-09T00:41:15.859Z,53.02
2018-06-09T00:42:15.859Z,54.56
2018-06-09T00:43:15.578Z,54.56
2018-06-09T00:44:15.576Z,54.56
2018-06-09T00:45:15.827Z,55.04
2018-06-09T00:46:15.815Z,55.9
2018-06-09T00:47:15.801Z,57.06
2018-06-09T00:48:15.801Z,58.95
2018-06-09T00:49:15.788Z,59.05
2018-06-09T00:50:15.806Z,59.92
2018-06-09T00:51:15.766Z,59.92
2018-06-09T00:52:15.758Z,58.95
2018-06-09T00:53:15.485Z,60.49
2018-06-09T00:54:15.473Z,60.59
2018-06-09T00:55:15.463Z,61.46
2018-06-09T00:56:15.715Z,62.61
2018-06-09T00:57:15.710Z,62.61
2018-06-09T00:58:15.433Z,62.99
2018-06-09T00:59:15.688Z,63.76
2018-06-09T01:00:15.413Z,65.11
2018-06-09T01:01:15.669Z,63.57
2018-06-09T01:02:15.660Z,62.99
2018-06-09T01:03:15.392Z,63.95
2018-06-09T01:04:15.379Z,65.3
2018-06-09T01:05:15.635Z,66.07
2018-06-09T01:06:15.621Z,65.78
2018-06-09T01:07:15.612Z,66.07
2018-06-09T01:08:15.600Z,69.15
2018-06-09T01:09:15.595Z,68.48
2018-06-09T01:10:15.584Z,67.71
2018-06-09T01:11:15.621Z,67.42
2018-06-09T01:12:15.296Z,67.32
2018-06-09T01:13:15.287Z,68.48
2018-06-09T01:14:15.539Z,67.71
2018-06-09T01:15:15.534Z,72.09
2018-06-09T01:16:15.257Z,72.32
2018-06-09T01:17:15.246Z,71.23
2018-06-09T01:18:15.241Z,70.07
2018-06-09T01:19:15.495Z,69.92
2018-06-09T01:20:15.225Z,71.17
2018-06-09T01:21:15.215Z,70.65
2018-06-09T01:22:15.199Z,71.26
2018-06-09T01:23:15.449Z,71.14
2018-06-09T01:24:15.182Z,69.73
2018-06-09T01:25:15.430Z,67.77
2018-06-09T01:26:15.422Z,69.06
2018-06-09T01:27:15.431Z,69.63
2018-06-09T01:28:15.144Z,70.46
2018-06-09T01:29:15.130Z,72.38
2018-06-09T01:30:15.384Z,70.65
2018-06-09T01:31:15.116Z,70.07
2018-06-09T01:32:15.364Z,69.89
2018-06-09T01:33:15.090Z,69.98
2018-06-09T01:34:15.131Z,70.17
2018-06-09T01:35:15.344Z,69.12
2018-06-09T01:36:15.059Z,69.69
2018-06-09T01:37:15.319Z,69.21
2018-06-09T01:38:15.090Z,69.12
2018-06-09T01:39:15.032Z,68.92
2018-06-09T01:40:15.021Z,68.35
2018-06-09T01:41:15.008Z,68.73
2018-06-09T01:42:15.008Z,67.96
2018-06-09T01:43:14.989Z,68.25
2018-06-09T01:44:15.245Z,67.38
2018-06-09T01:45:14.970Z,67.38
2018-06-09T01:46:15.223Z,68.92
2018-06-09T01:47:15.215Z,68.92
2018-06-09T01:48:15.208Z,68.25
2018-06-09T01:49:14.925Z,68.73
2018-06-09T01:50:15.183Z,68.63
2018-06-09T01:51:14.907Z,69.79
2018-06-09T01:52:14.899Z,68.83
2018-06-09T01:53:15.151Z,68.73
2018-06-09T01:54:15.143Z,70.07
2018-06-09T01:55:15.135Z,69.4
2018-06-09T01:56:14.857Z,70.75
2018-06-09T01:57:15.130Z,71.81
2018-06-09T01:58:15.105Z,72
2018-06-09T01:59:15.088Z,72.09
2018-06-09T02:00:14.820Z,72.38
2018-06-09T02:01:15.072Z,71.42
2018-06-09T02:02:15.060Z,70.94
2018-06-09T02:03:14.787Z,71.23
2018-06-09T02:04:14.784Z,72.38
2018-06-09T02:05:15.030Z,72
2018-06-09T02:06:15.022Z,72.29
2018-06-09T02:07:15.012Z,71.81
2018-06-09T02:08:15.000Z,72
2018-06-09T02:09:14.724Z,70.75
2018-06-09T02:10:14.982Z,72.38
2018-06-09T02:11:14.971Z,72.38
2018-06-09T02:12:14.961Z,73.06
2018-06-09T02:13:14.690Z,73.06
2018-06-09T02:14:14.992Z,73.73
2018-06-09T02:15:14.666Z,73.92
2018-06-09T02:16:14.916Z,74.6
2018-06-09T02:17:14.914Z,75.23
2018-06-09T02:18:14.911Z,75.9
2018-06-09T02:19:14.890Z,75.32
2018-06-09T02:20:14.880Z,75.04
2018-06-09T02:21:14.869Z,74.85
2018-06-09T02:22:14.595Z,74.85
2018-06-09T02:23:14.855Z,74.37
2018-06-09T02:24:14.836Z,74.69
2018-06-09T02:25:14.828Z,75.23
2018-06-09T02:26:14.818Z,76.57
2018-06-09T02:27:14.808Z,76.71
2018-06-09T02:28:14.536Z,76
2018-06-09T02:29:14.572Z,75.62
2018-06-09T02:30:14.781Z,77.15
2018-06-09T02:31:14.766Z,77.44
2018-06-09T02:32:14.501Z,77.73
2018-06-09T02:33:14.743Z,78.02
2018-06-09T02:34:14.474Z,77.92
2018-06-09T02:35:14.472Z,79.55
2018-06-09T02:36:14.451Z,78.5
2018-06-09T02:37:14.710Z,78.69
2018-06-09T02:38:14.436Z,78.4
2018-06-09T02:39:14.423Z,78.4
2018-06-09T02:40:14.674Z,77.63
2018-06-09T02:41:14.402Z,77.34
2018-06-09T02:42:14.394Z,78.21
2018-06-09T02:43:14.380Z,78.59
2018-06-09T02:44:14.632Z,78.78
2018-06-09T02:45:14.620Z,78.5
2018-06-09T02:46:14.351Z,79.55
2018-06-09T02:47:14.599Z,80.22
2018-06-09T02:48:14.329Z,79.07
2018-06-09T02:49:14.724Z,78.3
2018-06-09T02:50:14.310Z,78.5
2018-06-09T02:51:14.298Z,77.44
2018-06-09T02:52:14.561Z,76.86
2018-06-09T02:53:14.285Z,77.34
2018-06-09T02:54:14.541Z,77.15
2018-06-09T02:55:14.518Z,76.29
2018-06-09T02:56:14.246Z,78.59
2018-06-09T02:57:14.234Z,78.5
2018-06-09T02:58:14.497Z,78.3
2018-06-09T02:59:14.485Z,78.88
2018-06-09T03:00:14.475Z,78.5
2018-06-09T03:01:14.468Z,78.21
2018-06-09T03:02:14.201Z,77.83
2018-06-09T03:03:14.171Z,77.06
2018-06-09T03:04:14.426Z,77.53
2018-06-09T03:05:14.158Z,78.69
2018-06-09T03:06:14.406Z,78.59
2018-06-09T03:07:14.394Z,78.21
2018-06-09T03:08:14.387Z,77.53
2018-06-09T03:09:14.379Z,78.3
2018-06-09T03:10:14.366Z,81.38
2018-06-09T03:11:14.091Z,80.8
2018-06-09T03:12:14.086Z,81.09
2018-06-09T03:13:14.075Z,81.67
2018-06-09T03:14:14.319Z,80.8
2018-06-09T03:15:14.311Z,80.22
2018-06-09T03:16:14.310Z,80.61
2018-06-09T03:17:14.031Z,81.19
2018-06-09T03:18:14.029Z,81.09
2018-06-09T03:19:14.011Z,80.61
2018-06-09T03:20:14.258Z,80.32
2018-06-09T03:21:14.248Z,80.61
2018-06-09T03:22:14.245Z,80.32
2018-06-09T03:23:13.965Z,80.51
2018-06-09T03:24:14.215Z,79.75
2018-06-09T03:25:14.204Z,79.55
2018-06-09T03:26:14.198Z,80.04
2018-06-09T03:27:14.187Z,80.42
2018-06-09T03:28:14.174Z,80.61
2018-06-09T03:29:14.168Z,80.32
2018-06-09T03:30:14.152Z,77.63
2018-06-09T03:31:13.903Z,76.77
2018-06-09T03:32:13.869Z,75.9
2018-06-09T03:33:14.125Z,76.19
2018-06-09T03:34:14.115Z,75.81
2018-06-09T03:35:14.115Z,75.23
2018-06-09T03:36:13.830Z,75.71
2018-06-09T03:37:14.079Z,76.39
2018-06-09T03:38:14.078Z,77.15
2018-06-09T03:39:13.797Z,78.21
2018-06-09T03:40:14.058Z,78.4
2018-06-09T03:41:14.044Z,78.36
2018-06-09T03:42:13.764Z,78.36
2018-06-09T03:43:14.155Z,78.4
2018-06-09T03:44:14.008Z,80.8
2018-06-09T03:45:13.998Z,80.19
2018-06-09T03:46:13.984Z,79.32
2018-06-09T03:47:13.714Z,77.31
2018-06-09T03:48:13.705Z,80.47
2018-06-09T03:49:13.687Z,79.13
2018-06-09T03:50:13.944Z,77.78
2018-06-09T03:51:13.934Z,77.21
2018-06-09T03:52:13.925Z,77.11
2018-06-09T03:53:13.910Z,77.11
2018-06-09T03:54:13.638Z,79.13
2018-06-09T03:55:13.942Z,78.36
2018-06-09T03:56:13.877Z,78.45
2018-06-09T03:57:13.609Z,78.36
2018-06-09T03:58:13.595Z,77.5
2018-06-09T03:59:13.854Z,77.01
2018-06-09T04:00:13.839Z,77.69
2018-06-09T04:01:13.835Z,77.31
2018-06-09T04:02:13.555Z,77.01
2018-06-09T04:03:13.541Z,76.73
2018-06-09T04:04:13.535Z,75.77
2018-06-09T04:05:13.520Z,75.96
2018-06-09T04:06:13.512Z,75.38
2018-06-09T04:07:13.762Z,75.87
2018-06-09T04:08:13.488Z,75.96
2018-06-09T04:09:13.477Z,77.11
2018-06-09T04:10:13.468Z,77.5
2018-06-09T04:11:13.456Z,77.11
2018-06-09T04:12:13.710Z,75.29
2018-06-09T04:13:13.703Z,75.57
2018-06-09T04:14:13.689Z,75.87
2018-06-09T04:15:13.675Z,75.77
2018-06-09T04:16:13.672Z,75.77
2018-06-09T04:17:13.658Z,75.67
2018-06-09T04:18:13.387Z,75.77
2018-06-09T04:19:13.638Z,75.67
2018-06-09T04:20:13.627Z,75.67
2018-06-09T04:21:13.615Z,75.1
2018-06-09T04:22:13.601Z,75.2
2018-06-09T04:23:13.333Z,75.48
2018-06-09T04:24:13.583Z,75.48
2018-06-09T04:25:13.310Z,75
2018-06-09T04:26:13.564Z,75.1
2018-06-09T04:27:13.566Z,76.34
2018-06-09T04:28:13.541Z,76.15
2018-06-09T04:29:13.532Z,75.57
2018-06-09T04:30:13.256Z,75.48
2018-06-09T04:31:13.510Z,75.96
2018-06-09T04:32:13.499Z,75.48
2018-06-09T04:33:13.486Z,75.38
2018-06-09T04:34:13.479Z,74.52
2018-06-09T04:35:13.472Z,75.29
2018-06-09T04:36:13.457Z,75.57
2018-06-09T04:37:13.445Z,76.82
2018-06-09T04:38:13.172Z,77.5
2018-06-09T04:39:13.430Z,77.69
2018-06-09T04:40:13.414Z,78.55
2018-06-09T04:41:13.402Z,78.27
2018-06-09T04:42:13.410Z,78.5
2018-06-09T04:43:13.382Z,76.82
2018-06-09T04:44:13.371Z,77.21
2018-06-09T04:45:13.362Z,76.86
2018-06-09T04:46:13.355Z,77.44
2018-06-09T04:47:13.077Z,77.53
2018-06-09T04:48:13.066Z,78.5
2018-06-09T04:49:13.058Z,78.69
2018-06-09T04:50:13.045Z,78.59
2018-06-09T04:51:13.300Z,78.11
2018-06-09T04:52:13.345Z,79.27
2018-06-09T04:53:13.282Z,78.59
2018-06-09T04:54:13.270Z,77.53
2018-06-09T04:55:13.265Z,79.17
2018-06-09T04:56:13.248Z,79.55
2018-06-09T04:57:12.976Z,81.57
2018-06-09T04:58:13.239Z,83.01
2018-06-09T04:59:12.983Z,81.57
2018-06-09T05:00:13.213Z,81.71
2018-06-09T05:01:13.211Z,80.36
2018-06-09T05:02:13.198Z,81.04
2018-06-09T05:03:13.192Z,81.13
2018-06-09T05:04:13.172Z,80.55
2018-06-09T05:05:13.160Z,82.86
2018-06-09T05:06:13.148Z,82.96
2018-06-09T05:07:13.197Z,83.53
2018-06-09T05:08:12.865Z,83.48
2018-06-09T05:09:13.133Z,85.65
2018-06-09T05:10:13.151Z,83.96
2018-06-09T05:11:13.100Z,84.63
2018-06-09T05:12:12.832Z,85.31
2018-06-09T05:13:13.085Z,87.62
2018-06-09T05:14:12.805Z,88.29
2018-06-09T05:15:13.065Z,88.29
2018-06-09T05:16:13.046Z,86.46
2018-06-09T05:17:13.043Z,89.44
2018-06-09T05:18:12.765Z,88
2018-06-09T05:19:13.025Z,88.29
2018-06-09T05:20:13.022Z,88.48
2018-06-09T05:21:13.028Z,87.71
2018-06-09T05:22:12.994Z,90.31
2018-06-09T05:23:12.722Z,91.94
2018-06-09T05:24:12.975Z,90.31
2018-06-09T05:25:12.976Z,90.83
2018-06-09T05:26:12.956Z,91.94
2018-06-09T05:27:12.949Z,90.31
2018-06-09T05:28:12.702Z,90.69
2018-06-09T05:29:12.934Z,90.79
2018-06-09T05:30:12.919Z,91.08
2018-06-09T05:31:12.917Z,89.44
2018-06-09T05:32:12.898Z,89.2
2018-06-09T05:33:12.892Z,90.35
2018-06-09T05:34:12.879Z,90.55
2018-06-09T05:35:12.927Z,90.45
2018-06-09T05:36:12.861Z,89.87
2018-06-09T05:37:12.854Z,88.48
2018-06-09T05:38:12.845Z,90.26
2018-06-09T05:39:12.832Z,89.83
2018-06-09T05:40:12.828Z,89.87
2018-06-09T05:41:12.557Z,85.83
2018-06-09T05:42:12.541Z,87.18
2018-06-09T05:43:12.793Z,87.95
2018-06-09T05:44:12.523Z,89.39
2018-06-09T05:45:12.527Z,88.62
2018-06-09T05:46:12.765Z,90.64
2018-06-09T05:47:12.768Z,89.78
2018-06-09T05:48:12.485Z,89.29
2018-06-09T05:49:12.743Z,87.46
2018-06-09T05:50:12.471Z,86.79
2018-06-09T05:51:12.729Z,86.51
2018-06-09T05:52:12.449Z,87.08
2018-06-09T05:53:12.708Z,86.51
2018-06-09T05:54:12.702Z,87.85
2018-06-09T05:55:12.688Z,88.53
2018-06-09T05:56:12.412Z,87.76
2018-06-09T05:57:12.676Z,86.89
2018-06-09T05:58:12.428Z,87.85
2018-06-09T05:59:12.391Z,89.1
2018-06-09T06:00:12.641Z,90.06
2018-06-09T06:01:12.638Z,89.87
2018-06-09T06:02:12.627Z,89.2
2018-06-09T06:03:12.653Z,86.99
2018-06-09T06:04:12.605Z,87.46
2018-06-09T06:05:12.342Z,87.85
2018-06-09T06:06:12.583Z,86.51
2018-06-09T06:07:12.337Z,88.24
2018-06-09T06:08:12.571Z,88.53
2018-06-09T06:09:12.563Z,88.33
2018-06-09T06:10:12.547Z,86.22
2018-06-09T06:11:12.553Z,87.66
2018-06-09T06:12:12.530Z,87.56
2018-06-09T06:13:12.553Z,90.55
2018-06-09T06:14:12.508Z,88.81
2018-06-09T06:15:12.501Z,86.89
2018-06-09T06:16:12.230Z,85.06
2018-06-09T06:17:12.487Z,86.65
2018-06-09T06:18:12.478Z,85.39
2018-06-09T06:19:12.218Z,85.2
2018-06-09T06:20:12.196Z,87.65
2018-06-09T06:21:12.456Z,89.09
2018-06-09T06:22:12.451Z,91.12
2018-06-09T06:23:12.185Z,91.89
2018-06-09T06:24:12.422Z,92.94
2018-06-09T06:25:12.423Z,89.58
2018-06-09T06:26:12.427Z,91.31
2018-06-09T06:27:12.133Z,91.41
2018-06-09T06:28:12.394Z,92.66
2018-06-09T06:29:12.385Z,91.41
2018-06-09T06:30:12.106Z,91.5
2018-06-09T06:31:12.362Z,90.73
2018-06-09T06:32:12.090Z,91.12
2018-06-09T06:33:12.347Z,91.69
2018-06-09T06:34:12.071Z,92.47
2018-06-09T06:35:12.064Z,92.27
2018-06-09T06:36:12.051Z,92.18
2018-06-09T06:37:12.317Z,92.47
2018-06-09T06:38:12.040Z,93.04
2018-06-09T06:39:12.027Z,94.68
2018-06-09T06:40:12.020Z,93.04
2018-06-09T06:41:12.281Z,93.04
2018-06-09T06:42:12.000Z,93.91
2018-06-09T06:43:12.267Z,92.47
2018-06-09T06:44:12.252Z,93.62
2018-06-09T06:45:11.981Z,91.12
2018-06-09T06:46:11.970Z,90.92
2018-06-09T06:47:12.002Z,92.66
2018-06-09T06:48:12.220Z,91.31
2018-06-09T06:49:12.210Z,93.91
2018-06-09T06:50:12.453Z,92.66
2018-06-09T06:51:12.201Z,92.66
2018-06-09T06:52:12.182Z,93.72
2018-06-09T06:53:12.196Z,93.52
2018-06-09T06:54:11.905Z,93.62
2018-06-09T06:55:12.166Z,92.66
2018-06-09T06:56:12.146Z,91.21
2018-06-09T06:57:12.136Z,91.89
2018-06-09T06:58:11.875Z,91.21
2018-06-09T06:59:12.127Z,90.88
2018-06-09T07:00:11.849Z,90.83
2018-06-09T07:01:11.842Z,90.64
2018-06-09T07:02:12.158Z,87.84
2018-06-09T07:03:11.825Z,90.44
2018-06-09T07:04:11.822Z,91.5
2018-06-09T07:05:12.078Z,91.21
2018-06-09T07:06:12.059Z,92.47
2018-06-09T07:07:11.790Z,92.22
2018-06-09T07:08:11.781Z,92.13
2018-06-09T07:09:11.774Z,91.64
2018-06-09T07:10:12.032Z,95.54
2018-06-09T07:11:11.754Z,99.99
2018-06-09T07:12:11.751Z,99.99
2018-06-09T07:13:11.742Z,99.99
2018-06-09T07:14:11.733Z,99.99
2018-06-09T07:15:11.727Z,99.99
2018-06-09T07:16:11.997Z,99.99
2018-06-09T07:17:12.026Z,99.99
2018-06-09T07:18:11.707Z,99.99
2018-06-09T07:19:11.702Z,99.99
2018-06-09T07:20:11.691Z,99.99
2018-06-09T07:21:11.687Z,99.99
2018-06-09T07:22:11.720Z,99.99
2018-06-09T07:23:11.936Z,99.99
2018-06-09T07:24:11.934Z,99.55
2018-06-09T07:25:11.661Z,94.55
2018-06-09T07:26:11.657Z,96.01
2018-06-09T07:27:11.916Z,92.07
2018-06-09T07:28:11.648Z,89.39
2018-06-09T07:29:11.641Z,86.52
2018-06-09T07:30:11.899Z,82.14
2018-06-09T07:31:11.629Z,82.53
2018-06-09T07:32:11.629Z,81.16
2018-06-09T07:33:11.622Z,82.67
2018-06-09T07:34:11.886Z,80.33
2018-06-09T07:35:12.006Z,80.62
2018-06-09T07:36:11.610Z,79
2018-06-09T07:37:11.869Z,79.06
2018-06-09T07:38:11.601Z,78.52
2018-06-09T07:39:11.868Z,81.15
2018-06-09T07:40:11.859Z,78.75
2018-06-09T07:41:11.860Z,77
2018-06-09T07:42:11.851Z,77.19
2018-06-09T07:43:11.589Z,75.82
2018-06-09T07:44:11.844Z,77.58
2018-06-09T07:45:11.857Z,77.33
2018-06-09T07:46:11.579Z,76.51
2018-06-09T07:47:11.577Z,77.33
2018-06-09T07:48:11.838Z,77.33
2018-06-09T07:49:11.576Z,77
2018-06-09T07:50:11.837Z,77.48
2018-06-09T07:51:11.834Z,78.61
2018-06-09T07:52:11.826Z,81.98
2018-06-09T07:53:11.822Z,83.56
2018-06-09T07:54:11.586Z,86.92
2018-06-09T07:55:11.818Z,89.65
2018-06-09T07:56:11.819Z,92.91
2018-06-09T07:57:11.814Z,96.45
2018-06-09T07:58:11.815Z,99.99
2018-06-09T07:59:11.804Z,99.99
2018-06-09T08:00:11.801Z,99.99
2018-06-09T08:01:11.800Z,99.99
2018-06-09T08:02:11.796Z,99.99
2018-06-09T08:03:11.527Z,99.99
2018-06-09T08:04:11.525Z,99.99
2018-06-09T08:05:11.781Z,99.99
2018-06-09T08:06:11.517Z,99.99
2018-06-09T08:07:11.774Z,99.99
2018-06-09T08:08:11.768Z,99.99
2018-06-09T08:09:11.766Z,99.99
2018-06-09T08:10:11.757Z,99.99
2018-06-09T08:11:11.759Z,99.99
2018-06-09T08:12:11.485Z,99.99
2018-06-09T08:13:11.479Z,99.99
2018-06-09T08:14:11.741Z,99.99
2018-06-09T08:15:11.482Z,99.99
2018-06-09T08:16:11.464Z,99.99
2018-06-09T08:17:11.463Z,99.99
2018-06-09T08:18:11.455Z,99.99
2018-06-09T08:19:11.452Z,99.99
2018-06-09T08:20:11.710Z,99.99
2018-06-09T08:21:11.714Z,99.99
2018-06-09T08:22:11.438Z,99.99
2018-06-09T08:23:11.695Z,99.99
2018-06-09T08:24:11.687Z,99.99
2018-06-09T08:25:11.685Z,99.99
2018-06-09T08:26:11.683Z,99.99
2018-06-09T08:27:11.674Z,99.99
2018-06-09T08:28:11.675Z,99.99
2018-06-09T08:29:11.821Z,99.99
2018-06-09T08:30:11.672Z,99.99
2018-06-09T08:31:11.655Z,99.99
2018-06-09T08:32:11.649Z,99.99
2018-06-09T08:33:11.387Z,98.83
2018-06-09T08:34:11.389Z,95.14
2018-06-09T08:35:11.644Z,99.41
2018-06-09T08:36:11.468Z,99.99
2018-06-09T08:37:11.630Z,99.99
2018-06-09T08:38:11.365Z,99.99
2018-06-09T08:39:11.359Z,99.99
2018-06-09T08:40:11.628Z,98
2018-06-09T08:41:11.611Z,99.99
2018-06-09T08:42:11.354Z,99.99
2018-06-09T08:43:11.345Z,99.99
2018-06-09T08:44:11.604Z,99.99
2018-06-09T08:45:11.602Z,99.99
2018-06-09T08:46:11.328Z,99.99
2018-06-09T08:47:11.592Z,99.99
2018-06-09T08:48:11.588Z,99.99
2018-06-09T08:49:11.588Z,99.99
2018-06-09T08:50:11.781Z,99.99
2018-06-09T08:51:11.578Z,99.99
2018-06-09T08:52:11.567Z,99.99
2018-06-09T08:53:11.302Z,99.99
2018-06-09T08:54:11.561Z,99.99
2018-06-09T08:55:11.563Z,99.99
2018-06-09T08:56:11.552Z,99.99
2018-06-09T08:57:11.550Z,99.99
2018-06-09T08:58:11.547Z,99.99
2018-06-09T08:59:11.549Z,99.99
2018-06-09T09:00:11.535Z,99.99
2018-06-09T09:01:11.279Z,99.99
2018-06-09T09:02:11.264Z,99.99
2018-06-09T09:03:11.266Z,99.99
2018-06-09T09:04:11.260Z,99.99
2018-06-09T09:05:11.516Z,99.99
2018-06-09T09:06:11.522Z,99.99
2018-06-09T09:07:11.254Z,99.99
2018-06-09T09:08:11.505Z,99.99
2018-06-09T09:09:11.507Z,99.99
2018-06-09T09:10:11.511Z,97.81
2018-06-09T09:11:11.500Z,91.39
2018-06-09T09:12:11.495Z,94.45
2018-06-09T09:13:11.507Z,94.16
2018-06-09T09:14:11.500Z,89.09
2018-06-09T09:15:11.493Z,87.19
2018-06-09T09:16:11.495Z,83.18
2018-06-09T09:17:11.495Z,83.72
2018-06-09T09:18:11.492Z,83.92
2018-06-09T09:19:11.489Z,85.57
2018-06-09T09:20:11.493Z,85.53
2018-06-09T09:21:11.491Z,86.99
2018-06-09T09:22:11.220Z,84.94
2018-06-09T09:23:11.223Z,83.25
2018-06-09T09:24:11.222Z,82.57
2018-06-09T09:25:11.484Z,85.31
2018-06-09T09:26:11.228Z,86.28
2018-06-09T09:27:11.481Z,87.89
2018-06-09T09:28:11.481Z,88.09
2018-06-09T09:29:11.485Z,88.86
2018-06-09T09:30:11.474Z,91.05
2018-06-09T09:31:11.479Z,92.71
2018-06-09T09:32:11.619Z,92.12
2018-06-09T09:33:11.494Z,88.04
2018-06-09T09:34:11.208Z,92.22
2018-06-09T09:35:11.474Z,94.36
2018-06-09T09:36:11.489Z,92.36
2018-06-09T09:37:11.472Z,92.36
2018-06-09T09:38:11.473Z,89.49
2018-06-09T09:39:11.469Z,89.24
2018-06-09T09:40:11.469Z,87.49
2018-06-09T09:41:11.206Z,87.05
2018-06-09T09:42:11.469Z,87.43
2018-06-09T09:43:11.203Z,89.73
2018-06-09T09:44:11.203Z,92.8
2018-06-09T09:45:11.460Z,92.8
2018-06-09T09:46:11.469Z,93.77
2018-06-09T09:47:11.199Z,92.7
2018-06-09T09:48:11.459Z,95.62
2018-06-09T09:49:11.457Z,91.34
2018-06-09T09:50:11.456Z,89.98
2018-06-09T09:51:11.458Z,90.08
2018-06-09T09:52:11.195Z,89.78
2018-06-09T09:53:11.451Z,92.5
2018-06-09T09:54:11.447Z,94.7
2018-06-09T09:55:11.451Z,95.57
2018-06-09T09:56:11.450Z,94.89
2018-06-09T09:57:11.184Z,91.78
2018-06-09T09:58:11.177Z,94.6
2018-06-09T09:59:11.440Z,91.97
2018-06-09T10:00:11.436Z,96.69
2018-06-09T10:01:11.176Z,94.26
2018-06-09T10:02:11.438Z,97.13
2018-06-09T10:03:11.171Z,97.81
2018-06-09T10:04:11.430Z,96.06
2018-06-09T10:05:11.161Z,96.94
2018-06-09T10:06:11.166Z,98.2
2018-06-09T10:07:11.431Z,99.99
2018-06-09T10:08:11.154Z,99.85
2018-06-09T10:09:11.422Z,98.97
2018-06-09T10:10:11.151Z,99.99
2018-06-09T10:11:11.409Z,99.99
2018-06-09T10:12:11.418Z,99.99
2018-06-09T10:13:11.142Z,99.99
2018-06-09T10:14:11.415Z,99.99
2018-06-09T10:15:11.397Z,99.99
2018-06-09T10:16:11.402Z,99.99
2018-06-09T10:17:11.393Z,98.68
2018-06-09T10:18:11.398Z,97.91
2018-06-09T10:19:11.129Z,94.74
2018-06-09T10:20:11.394Z,94.45
2018-06-09T10:21:11.397Z,89.62
2018-06-09T10:22:11.392Z,84.3
2018-06-09T10:23:11.131Z,84.05
2018-06-09T10:24:11.131Z,84.54
2018-06-09T10:25:11.394Z,84.88
2018-06-09T10:26:11.406Z,83.26
2018-06-09T10:27:11.136Z,83.89
2018-06-09T10:28:11.135Z,80.11
2018-06-09T10:29:11.140Z,77.51
2018-06-09T10:30:11.141Z,77.94
2018-06-09T10:31:11.413Z,75.11
2018-06-09T10:32:11.412Z,71.03
2018-06-09T10:33:11.417Z,71.33
2018-06-09T10:34:11.423Z,75.11
2018-06-09T10:35:11.158Z,74.38
2018-06-09T10:36:11.164Z,75.46
2018-06-09T10:37:11.493Z,73.35
2018-06-09T10:38:11.164Z,75.15
2018-06-09T10:39:11.170Z,73.52
2018-06-09T10:40:11.178Z,72.57
2018-06-09T10:41:11.450Z,71.69
2018-06-09T10:42:11.451Z,69.96
2018-06-09T10:43:11.456Z,70.68
2018-06-09T10:44:11.191Z,68.95
2018-06-09T10:45:11.485Z,66.01
2018-06-09T10:46:11.474Z,65.72
2018-06-09T10:47:11.470Z,66.33
2018-06-09T10:48:11.475Z,66.43
2018-06-09T10:49:11.486Z,67.51
2018-06-09T10:50:11.421Z,65.29
2018-06-09T10:51:11.231Z,67.15
2018-06-09T10:52:11.503Z,65.61
2018-06-09T10:53:11.506Z,65.84
2018-06-09T10:54:11.243Z,64.56
2018-06-09T10:55:11.517Z,64.56
2018-06-09T10:56:11.262Z,63.98
2018-06-09T10:57:11.270Z,62.93
2018-06-09T10:58:11.556Z,64.89
2018-06-09T10:59:11.541Z,62.9
2018-06-09T11:00:11.545Z,64.5
2018-06-09T11:01:11.289Z,64.3
2018-06-09T11:02:11.556Z,62.43
2018-06-09T11:03:11.301Z,63.64
2018-06-09T11:04:11.566Z,62.24
2018-06-09T11:05:11.572Z,62.34
2018-06-09T11:06:11.328Z,62.53
2018-06-09T11:07:11.589Z,63.02
2018-06-09T11:08:11.327Z,64.59
2018-06-09T11:09:11.602Z,62.34
2018-06-09T11:10:11.355Z,63.35
2018-06-09T11:11:11.408Z,61.97
2018-06-09T11:12:11.633Z,63.64
2018-06-09T11:13:11.365Z,62.4
2018-06-09T11:14:11.632Z,62.59
2018-06-09T11:15:11.374Z,60.72
2018-06-09T11:16:11.644Z,60.72
2018-06-09T11:17:11.390Z,61.24
2018-06-09T11:18:11.697Z,63.02
2018-06-09T11:19:11.399Z,61.54
2018-06-09T11:20:11.685Z,61.71
2018-06-09T11:21:11.415Z,60.03
2018-06-09T11:22:11.425Z,58.78
2018-06-09T11:23:11.689Z,61.11
2018-06-09T11:24:11.694Z,62.46
2018-06-09T11:25:11.704Z,62.27
2018-06-09T11:26:11.739Z,61.51
2018-06-09T11:27:11.541Z,61.31
2018-06-09T11:28:11.725Z,59.27
2018-06-09T11:29:11.729Z,60.65
2018-06-09T11:30:11.477Z,61.34
2018-06-09T11:31:11.749Z,60.39
2018-06-09T11:32:11.753Z,61.18
2018-06-09T11:33:11.774Z,61.27
2018-06-09T11:34:11.771Z,62.85
2018-06-09T11:35:11.512Z,60.52
2018-06-09T11:36:11.783Z,61.8
2018-06-09T11:37:11.529Z,59.53
2018-06-09T11:38:11.538Z,60.41
2018-06-09T11:39:11.539Z,59.92
2018-06-09T11:40:11.810Z,59.72
2018-06-09T11:41:11.818Z,58.15
2018-06-09T11:42:11.834Z,57.78
2018-06-09T11:43:11.842Z,60.31
2018-06-09T11:44:11.881Z,58.57
2018-06-09T11:45:11.901Z,56.4
2018-06-09T11:46:11.895Z,57.88
2018-06-09T11:47:11.662Z,60.61
2018-06-09T11:48:11.866Z,60.19
2018-06-09T11:49:11.614Z,60.88
2018-06-09T11:50:11.885Z,60.61
2018-06-09T11:51:11.896Z,59.83
2018-06-09T11:52:11.634Z,59.83
2018-06-09T11:53:11.902Z,58.54
2018-06-09T11:54:11.911Z,60.02
2018-06-09T11:55:11.923Z,55.98
2018-06-09T11:56:11.927Z,56.77
2018-06-09T11:57:11.934Z,58.42
2018-06-09T11:58:11.942Z,57.75
2018-06-09T11:59:11.952Z,58.57
2018-06-09T12:00:11.956Z,57.19
2018-06-09T12:01:11.969Z,57.78
2018-06-09T12:02:11.707Z,56.99
2018-06-09T12:03:11.716Z,56.92
2018-06-09T12:04:11.987Z,57.78
2018-06-09T12:05:11.733Z,58.3
2018-06-09T12:06:11.744Z,58.7
2018-06-09T12:07:12.016Z,58.5
2018-06-09T12:08:12.018Z,56.73
2018-06-09T12:09:12.031Z,56.53
2018-06-09T12:10:12.032Z,57.32
2018-06-09T12:11:11.781Z,57.24
2018-06-09T12:12:12.046Z,57.84
2018-06-09T12:13:11.788Z,59.84
2018-06-09T12:14:12.091Z,58.75
2018-06-09T12:15:12.072Z,57.37
2018-06-09T12:16:11.821Z,57.67
2018-06-09T12:17:12.200Z,58.46
2018-06-09T12:18:11.835Z,57.87
2018-06-09T12:19:11.840Z,57.77
2018-06-09T12:20:11.843Z,57.97
2018-06-09T12:21:12.118Z,56.98
2018-06-09T12:22:12.122Z,54.51
2018-06-09T12:23:12.129Z,57.28
2018-06-09T12:24:11.871Z,56.48
2018-06-09T12:25:12.149Z,56.48
2018-06-09T12:26:11.886Z,56.88
2018-06-09T12:27:11.900Z,58.29
2018-06-09T12:28:11.903Z,58.39
2018-06-09T12:29:12.176Z,55.62
2018-06-09T12:30:12.182Z,55.65
2018-06-09T12:31:12.193Z,56.81
2018-06-09T12:32:12.204Z,56.91
2018-06-09T12:33:12.211Z,57.33
2018-06-09T12:34:12.217Z,55.52
2018-06-09T12:35:12.222Z,55.26
2018-06-09T12:36:11.965Z,54.46
2018-06-09T12:37:12.240Z,54.27
2018-06-09T12:38:11.982Z,55.65
2018-06-09T12:39:12.256Z,52.39
2018-06-09T12:40:12.258Z,55.03
2018-06-09T12:41:12.320Z,55.52
2018-06-09T12:42:12.274Z,55.33
2018-06-09T12:43:12.283Z,54.83
2018-06-09T12:44:12.293Z,55.94
2018-06-09T12:45:12.303Z,53.18
2018-06-09T12:46:12.043Z,56.84
2018-06-09T12:47:12.323Z,54.88
2018-06-09T12:48:12.323Z,53.7
2018-06-09T12:49:12.332Z,54.49
2018-06-09T12:50:12.277Z,52.61
2018-06-09T12:51:12.119Z,54.34
2018-06-09T12:52:12.385Z,54.71
2018-06-09T12:53:12.368Z,56.88
2018-06-09T12:54:12.375Z,56.41
2018-06-09T12:55:12.393Z,53.35